sensor_id;sensor_type;location;lat;lon;timestamp;P1;durP1;ratioP1;P2;durP2;ratioP2
22973;SDS011;11653;50.848;4.584;2023-07-31T00:00:28;20.60;;;5.60;;
22973;SDS011;11653;50.848;4.584;2023-07-31T00:02:54;19.63;;;5.33;;
22973;SDS011;11653;50.848;4.584;2023-07-31T00:05:20;14.10;;;5.37;;
22973;SDS011;11653;50.848;4.584;2023-07-31T00:07:46;18.60;;;5.47;;
22973;SDS011;11653;50.848;4.584;2023-07-31T00:10:12;24.10;;;6.50;;
22973;SDS011;11653;50.848;4.584;2023-07-31T00:12:38;19.30;;;5.87;;
22973;SDS011;11653;50.848;4.584;2023-07-31T00:15:05;14.30;;;5.27;;
22973;SDS011;11653;50.848;4.584;2023-07-31T00:17:32;18.00;;;5.37;;
22973;SDS011;11653;50.848;4.584;2023-07-31T00:19:57;17.97;;;5.90;;
22973;SDS011;11653;50.848;4.584;2023-07-31T00:22:23;21.10;;;5.87;;
22973;SDS011;11653;50.848;4.584;2023-07-31T00:24:49;14.17;;;5.23;;
22973;SDS011;11653;50.848;4.584;2023-07-31T00:27:15;15.10;;;6.23;;
22973;SDS011;11653;50.848;4.584;2023-07-31T00:29:40;20.50;;;5.30;;
22973;SDS011;11653;50.848;4.584;2023-07-31T00:32:06;21.43;;;5.93;;
22973;SDS011;11653;50.848;4.584;2023-07-31T00:34:32;13.17;;;5.07;;
22973;SDS011;11653;50.848;4.584;2023-07-31T00:36:58;16.53;;;5.53;;
22973;SDS011;11653;50.848;4.584;2023-07-31T00:39:23;13.50;;;5.13;;
22973;SDS011;11653;50.848;4.584;2023-07-31T00:41:49;15.87;;;5.93;;
22973;SDS011;11653;50.848;4.584;2023-07-31T00:44:14;18.43;;;6.13;;
22973;SDS011;11653;50.848;4.584;2023-07-31T00:46:40;13.27;;;5.50;;
22973;SDS011;11653;50.848;4.584;2023-07-31T00:49:06;20.73;;;5.50;;
22973;SDS011;11653;50.848;4.584;2023-07-31T00:51:32;16.90;;;6.20;;
22973;SDS011;11653;50.848;4.584;2023-07-31T00:53:58;12.87;;;5.37;;
22973;SDS011;11653;50.848;4.584;2023-07-31T00:56:24;18.03;;;5.60;;
22973;SDS011;11653;50.848;4.584;2023-07-31T00:58:50;18.53;;;5.67;;
22973;SDS011;11653;50.848;4.584;2023-07-31T01:01:16;14.23;;;5.57;;
22973;SDS011;11653;50.848;4.584;2023-07-31T01:03:42;18.53;;;5.23;;
22973;SDS011;11653;50.848;4.584;2023-07-31T01:06:13;20.60;;;5.63;;
22973;SDS011;11653;50.848;4.584;2023-07-31T01:08:45;19.80;;;5.80;;
22973;SDS011;11653;50.848;4.584;2023-07-31T01:11:19;12.73;;;4.77;;
22973;SDS011;11653;50.848;4.584;2023-07-31T01:13:52;12.03;;;4.87;;
22973;SDS011;11653;50.848;4.584;2023-07-31T01:16:19;16.80;;;6.17;;
22973;SDS011;11653;50.848;4.584;2023-07-31T01:18:45;12.83;;;5.50;;
22973;SDS011;11653;50.848;4.584;2023-07-31T01:24:25;13.93;;;5.10;;
22973;SDS011;11653;50.848;4.584;2023-07-31T01:30:16;21.20;;;5.17;;
22973;SDS011;11653;50.848;4.584;2023-07-31T01:32:39;14.47;;;5.00;;
22973;SDS011;11653;50.848;4.584;2023-07-31T01:35:07;13.30;;;4.63;;
22973;SDS011;11653;50.848;4.584;2023-07-31T01:37:33;17.80;;;4.90;;
22973;SDS011;11653;50.848;4.584;2023-07-31T01:39:59;13.57;;;5.40;;
22973;SDS011;11653;50.848;4.584;2023-07-31T01:42:25;10.97;;;5.10;;
22973;SDS011;11653;50.848;4.584;2023-07-31T01:44:50;17.77;;;5.77;;
22973;SDS011;11653;50.848;4.584;2023-07-31T01:47:16;18.27;;;5.40;;
22973;SDS011;11653;50.848;4.584;2023-07-31T01:49:42;13.97;;;5.20;;
22973;SDS011;11653;50.848;4.584;2023-07-31T01:52:07;16.47;;;5.90;;
22973;SDS011;11653;50.848;4.584;2023-07-31T01:54:33;17.93;;;6.20;;
22973;SDS011;11653;50.848;4.584;2023-07-31T01:56:59;16.37;;;6.07;;
22973;SDS011;11653;50.848;4.584;2023-07-31T01:59:24;18.43;;;6.50;;
22973;SDS011;11653;50.848;4.584;2023-07-31T02:01:50;16.10;;;6.47;;
22973;SDS011;11653;50.848;4.584;2023-07-31T02:04:16;16.47;;;5.80;;
22973;SDS011;11653;50.848;4.584;2023-07-31T02:06:42;17.10;;;5.83;;
22973;SDS011;11653;50.848;4.584;2023-07-31T02:09:08;19.43;;;6.13;;
22973;SDS011;11653;50.848;4.584;2023-07-31T02:11:34;14.03;;;5.53;;
22973;SDS011;11653;50.848;4.584;2023-07-31T02:13:59;17.23;;;7.13;;
22973;SDS011;11653;50.848;4.584;2023-07-31T02:16:25;13.93;;;6.50;;
22973;SDS011;11653;50.848;4.584;2023-07-31T02:18:51;15.30;;;6.00;;
22973;SDS011;11653;50.848;4.584;2023-07-31T02:21:17;20.23;;;6.47;;
22973;SDS011;11653;50.848;4.584;2023-07-31T02:23:42;16.13;;;6.13;;
22973;SDS011;11653;50.848;4.584;2023-07-31T02:26:08;17.30;;;6.83;;
22973;SDS011;11653;50.848;4.584;2023-07-31T02:28:34;13.87;;;6.53;;
22973;SDS011;11653;50.848;4.584;2023-07-31T02:30:59;16.33;;;6.43;;
22973;SDS011;11653;50.848;4.584;2023-07-31T02:33:25;17.67;;;6.57;;
22973;SDS011;11653;50.848;4.584;2023-07-31T02:35:51;11.73;;;6.17;;
22973;SDS011;11653;50.848;4.584;2023-07-31T02:38:16;15.50;;;6.43;;
22973;SDS011;11653;50.848;4.584;2023-07-31T02:40:42;15.50;;;6.50;;
22973;SDS011;11653;50.848;4.584;2023-07-31T02:43:08;14.87;;;5.63;;
22973;SDS011;11653;50.848;4.584;2023-07-31T02:45:33;12.27;;;5.23;;
22973;SDS011;11653;50.848;4.584;2023-07-31T02:47:59;17.70;;;6.07;;
22973;SDS011;11653;50.848;4.584;2023-07-31T02:50:25;17.17;;;6.00;;
22973;SDS011;11653;50.848;4.584;2023-07-31T02:52:52;12.63;;;5.83;;
22973;SDS011;11653;50.848;4.584;2023-07-31T02:55:18;14.03;;;5.87;;
22973;SDS011;11653;50.848;4.584;2023-07-31T02:57:44;11.70;;;5.53;;
22973;SDS011;11653;50.848;4.584;2023-07-31T03:00:09;13.63;;;5.20;;
22973;SDS011;11653;50.848;4.584;2023-07-31T03:02:35;10.10;;;5.13;;
22973;SDS011;11653;50.848;4.584;2023-07-31T03:05:01;10.43;;;5.50;;
22973;SDS011;11653;50.848;4.584;2023-07-31T03:07:26;10.37;;;5.40;;
22973;SDS011;11653;50.848;4.584;2023-07-31T03:09:52;15.50;;;5.40;;
22973;SDS011;11653;50.848;4.584;2023-07-31T03:12:18;10.57;;;5.00;;
22973;SDS011;11653;50.848;4.584;2023-07-31T03:14:44;13.80;;;5.07;;
22973;SDS011;11653;50.848;4.584;2023-07-31T03:17:10;10.73;;;4.90;;
22973;SDS011;11653;50.848;4.584;2023-07-31T03:19:35;11.17;;;5.30;;
22973;SDS011;11653;50.848;4.584;2023-07-31T03:22:01;12.23;;;6.30;;
22973;SDS011;11653;50.848;4.584;2023-07-31T03:24:28;10.10;;;5.17;;
22973;SDS011;11653;50.848;4.584;2023-07-31T03:26:54;13.60;;;5.33;;
22973;SDS011;11653;50.848;4.584;2023-07-31T03:29:20;9.97;;;5.03;;
22973;SDS011;11653;50.848;4.584;2023-07-31T03:31:45;13.73;;;5.43;;
22973;SDS011;11653;50.848;4.584;2023-07-31T03:34:11;9.73;;;4.60;;
22973;SDS011;11653;50.848;4.584;2023-07-31T03:36:36;15.33;;;5.63;;
22973;SDS011;11653;50.848;4.584;2023-07-31T03:39:02;14.37;;;5.67;;
22973;SDS011;11653;50.848;4.584;2023-07-31T03:41:28;8.03;;;4.87;;
22973;SDS011;11653;50.848;4.584;2023-07-31T03:43:54;8.40;;;4.87;;
22973;SDS011;11653;50.848;4.584;2023-07-31T03:46:23;14.00;;;5.13;;
22973;SDS011;11653;50.848;4.584;2023-07-31T03:48:49;12.63;;;5.13;;
22973;SDS011;11653;50.848;4.584;2023-07-31T03:51:15;9.83;;;4.93;;
22973;SDS011;11653;50.848;4.584;2023-07-31T03:53:41;12.33;;;4.90;;
22973;SDS011;11653;50.848;4.584;2023-07-31T03:56:07;13.43;;;5.07;;
22973;SDS011;11653;50.848;4.584;2023-07-31T03:58:33;9.13;;;4.67;;
22973;SDS011;11653;50.848;4.584;2023-07-31T04:01:00;10.67;;;4.97;;
22973;SDS011;11653;50.848;4.584;2023-07-31T04:03:25;10.43;;;4.70;;
22973;SDS011;11653;50.848;4.584;2023-07-31T04:05:51;9.87;;;4.70;;
22973;SDS011;11653;50.848;4.584;2023-07-31T04:08:18;10.47;;;5.30;;
22973;SDS011;11653;50.848;4.584;2023-07-31T04:10:44;11.00;;;5.23;;
22973;SDS011;11653;50.848;4.584;2023-07-31T04:13:10;14.47;;;5.27;;
22973;SDS011;11653;50.848;4.584;2023-07-31T04:15:35;12.07;;;5.00;;
22973;SDS011;11653;50.848;4.584;2023-07-31T04:18:01;10.50;;;5.20;;
22973;SDS011;11653;50.848;4.584;2023-07-31T04:20:26;13.33;;;5.77;;
22973;SDS011;11653;50.848;4.584;2023-07-31T04:22:52;13.13;;;5.60;;
22973;SDS011;11653;50.848;4.584;2023-07-31T04:25:18;14.23;;;5.20;;
22973;SDS011;11653;50.848;4.584;2023-07-31T04:27:43;8.70;;;4.73;;
22973;SDS011;11653;50.848;4.584;2023-07-31T04:30:09;11.03;;;5.30;;
22973;SDS011;11653;50.848;4.584;2023-07-31T04:32:35;13.90;;;5.20;;
22973;SDS011;11653;50.848;4.584;2023-07-31T04:35:01;13.93;;;5.63;;
22973;SDS011;11653;50.848;4.584;2023-07-31T04:37:26;17.07;;;5.43;;
22973;SDS011;11653;50.848;4.584;2023-07-31T04:39:52;11.17;;;4.90;;
22973;SDS011;11653;50.848;4.584;2023-07-31T04:42:18;7.87;;;4.83;;
22973;SDS011;11653;50.848;4.584;2023-07-31T04:44:43;9.07;;;4.83;;
22973;SDS011;11653;50.848;4.584;2023-07-31T04:47:09;12.60;;;5.43;;
22973;SDS011;11653;50.848;4.584;2023-07-31T04:49:35;9.13;;;5.63;;
22973;SDS011;11653;50.848;4.584;2023-07-31T04:52:00;8.60;;;4.40;;
22973;SDS011;11653;50.848;4.584;2023-07-31T04:54:26;10.70;;;4.80;;
22973;SDS011;11653;50.848;4.584;2023-07-31T04:56:52;8.87;;;5.23;;
22973;SDS011;11653;50.848;4.584;2023-07-31T04:59:17;10.90;;;4.90;;
22973;SDS011;11653;50.848;4.584;2023-07-31T05:01:43;13.30;;;5.20;;
22973;SDS011;11653;50.848;4.584;2023-07-31T05:04:12;10.47;;;5.00;;
22973;SDS011;11653;50.848;4.584;2023-07-31T05:06:39;13.70;;;5.10;;
22973;SDS011;11653;50.848;4.584;2023-07-31T05:09:05;8.67;;;4.47;;
22973;SDS011;11653;50.848;4.584;2023-07-31T05:11:30;10.43;;;4.87;;
22973;SDS011;11653;50.848;4.584;2023-07-31T05:13:56;9.07;;;4.43;;
22973;SDS011;11653;50.848;4.584;2023-07-31T05:16:21;10.77;;;5.40;;
22973;SDS011;11653;50.848;4.584;2023-07-31T05:18:47;8.87;;;4.83;;
22973;SDS011;11653;50.848;4.584;2023-07-31T05:21:13;14.53;;;5.60;;
22973;SDS011;11653;50.848;4.584;2023-07-31T05:23:38;15.77;;;5.37;;
22973;SDS011;11653;50.848;4.584;2023-07-31T05:26:04;8.17;;;4.77;;
22973;SDS011;11653;50.848;4.584;2023-07-31T05:28:31;8.40;;;4.80;;
22973;SDS011;11653;50.848;4.584;2023-07-31T05:31:00;10.83;;;4.90;;
22973;SDS011;11653;50.848;4.584;2023-07-31T05:33:26;8.43;;;4.70;;
22973;SDS011;11653;50.848;4.584;2023-07-31T05:35:52;8.40;;;4.27;;
22973;SDS011;11653;50.848;4.584;2023-07-31T05:38:18;9.07;;;4.60;;
22973;SDS011;11653;50.848;4.584;2023-07-31T05:40:43;10.37;;;4.47;;
22973;SDS011;11653;50.848;4.584;2023-07-31T05:43:09;10.47;;;4.73;;
22973;SDS011;11653;50.848;4.584;2023-07-31T05:45:35;8.57;;;4.17;;
22973;SDS011;11653;50.848;4.584;2023-07-31T05:48:02;7.37;;;4.70;;
22973;SDS011;11653;50.848;4.584;2023-07-31T05:50:28;9.53;;;4.90;;
22973;SDS011;11653;50.848;4.584;2023-07-31T05:52:54;9.60;;;4.57;;
22973;SDS011;11653;50.848;4.584;2023-07-31T05:55:19;10.93;;;4.57;;
22973;SDS011;11653;50.848;4.584;2023-07-31T05:57:45;11.20;;;4.93;;
22973;SDS011;11653;50.848;4.584;2023-07-31T06:00:12;7.87;;;4.40;;
22973;SDS011;11653;50.848;4.584;2023-07-31T06:02:38;11.30;;;4.43;;
22973;SDS011;11653;50.848;4.584;2023-07-31T06:05:04;9.67;;;4.73;;
22973;SDS011;11653;50.848;4.584;2023-07-31T06:07:31;11.50;;;4.67;;
22973;SDS011;11653;50.848;4.584;2023-07-31T06:09:57;10.53;;;4.67;;
22973;SDS011;11653;50.848;4.584;2023-07-31T06:12:30;10.20;;;4.73;;
22973;SDS011;11653;50.848;4.584;2023-07-31T06:14:56;16.47;;;5.33;;
22973;SDS011;11653;50.848;4.584;2023-07-31T06:17:22;8.83;;;4.73;;
22973;SDS011;11653;50.848;4.584;2023-07-31T06:19:47;11.97;;;5.10;;
22973;SDS011;11653;50.848;4.584;2023-07-31T06:22:14;10.87;;;5.03;;
22973;SDS011;11653;50.848;4.584;2023-07-31T06:24:39;8.60;;;5.20;;
22973;SDS011;11653;50.848;4.584;2023-07-31T06:27:05;10.83;;;5.23;;
22973;SDS011;11653;50.848;4.584;2023-07-31T06:29:31;5.30;;;3.70;;
22973;SDS011;11653;50.848;4.584;2023-07-31T06:31:57;8.93;;;4.50;;
22973;SDS011;11653;50.848;4.584;2023-07-31T06:34:23;10.53;;;4.70;;
22973;SDS011;11653;50.848;4.584;2023-07-31T06:36:48;10.50;;;4.60;;
22973;SDS011;11653;50.848;4.584;2023-07-31T06:39:14;10.77;;;4.90;;
22973;SDS011;11653;50.848;4.584;2023-07-31T06:41:40;11.37;;;4.67;;
22973;SDS011;11653;50.848;4.584;2023-07-31T06:44:06;12.00;;;4.80;;
22973;SDS011;11653;50.848;4.584;2023-07-31T06:46:32;9.67;;;4.60;;
22973;SDS011;11653;50.848;4.584;2023-07-31T06:48:58;14.93;;;4.43;;
22973;SDS011;11653;50.848;4.584;2023-07-31T06:51:23;9.63;;;4.17;;
22973;SDS011;11653;50.848;4.584;2023-07-31T06:53:49;12.43;;;4.57;;
22973;SDS011;11653;50.848;4.584;2023-07-31T06:56:15;9.90;;;4.67;;
22973;SDS011;11653;50.848;4.584;2023-07-31T06:58:41;9.27;;;4.27;;
22973;SDS011;11653;50.848;4.584;2023-07-31T07:01:07;8.40;;;3.87;;
22973;SDS011;11653;50.848;4.584;2023-07-31T07:03:32;9.67;;;3.77;;
22973;SDS011;11653;50.848;4.584;2023-07-31T07:05:58;8.90;;;3.97;;
22973;SDS011;11653;50.848;4.584;2023-07-31T07:08:24;7.43;;;3.70;;
22973;SDS011;11653;50.848;4.584;2023-07-31T07:10:50;12.13;;;3.73;;
22973;SDS011;11653;50.848;4.584;2023-07-31T07:13:16;7.80;;;3.50;;
22973;SDS011;11653;50.848;4.584;2023-07-31T07:15:43;7.30;;;3.67;;
22973;SDS011;11653;50.848;4.584;2023-07-31T07:18:13;7.23;;;3.67;;
22973;SDS011;11653;50.848;4.584;2023-07-31T07:20:39;6.33;;;3.63;;
22973;SDS011;11653;50.848;4.584;2023-07-31T07:23:05;11.30;;;4.00;;
22973;SDS011;11653;50.848;4.584;2023-07-31T07:25:30;7.73;;;3.80;;
22973;SDS011;11653;50.848;4.584;2023-07-31T07:27:56;9.23;;;3.47;;
22973;SDS011;11653;50.848;4.584;2023-07-31T07:30:22;9.13;;;3.63;;
22973;SDS011;11653;50.848;4.584;2023-07-31T07:32:50;10.03;;;3.63;;
22973;SDS011;11653;50.848;4.584;2023-07-31T07:35:15;7.53;;;3.60;;
22973;SDS011;11653;50.848;4.584;2023-07-31T07:37:41;8.43;;;3.30;;
22973;SDS011;11653;50.848;4.584;2023-07-31T07:40:07;7.70;;;3.43;;
22973;SDS011;11653;50.848;4.584;2023-07-31T07:42:33;6.10;;;3.30;;
22973;SDS011;11653;50.848;4.584;2023-07-31T07:44:59;6.37;;;3.47;;
22973;SDS011;11653;50.848;4.584;2023-07-31T07:47:24;7.10;;;3.00;;
22973;SDS011;11653;50.848;4.584;2023-07-31T07:49:50;4.57;;;3.17;;
22973;SDS011;11653;50.848;4.584;2023-07-31T07:52:16;7.03;;;3.40;;
22973;SDS011;11653;50.848;4.584;2023-07-31T07:54:42;9.73;;;3.70;;
22973;SDS011;11653;50.848;4.584;2023-07-31T07:57:07;6.00;;;3.27;;
22973;SDS011;11653;50.848;4.584;2023-07-31T07:59:33;7.30;;;3.27;;
22973;SDS011;11653;50.848;4.584;2023-07-31T08:01:59;13.17;;;3.43;;
22973;SDS011;11653;50.848;4.584;2023-07-31T08:04:25;9.57;;;3.03;;
22973;SDS011;11653;50.848;4.584;2023-07-31T08:06:51;8.83;;;3.37;;
22973;SDS011;11653;50.848;4.584;2023-07-31T08:09:16;8.77;;;3.67;;
22973;SDS011;11653;50.848;4.584;2023-07-31T08:11:42;7.57;;;3.10;;
22973;SDS011;11653;50.848;4.584;2023-07-31T08:14:07;8.97;;;3.20;;
22973;SDS011;11653;50.848;4.584;2023-07-31T08:16:33;6.03;;;2.90;;
22973;SDS011;11653;50.848;4.584;2023-07-31T08:18:59;12.17;;;3.20;;
22973;SDS011;11653;50.848;4.584;2023-07-31T08:21:24;8.23;;;2.87;;
22973;SDS011;11653;50.848;4.584;2023-07-31T08:23:50;6.17;;;3.00;;
22973;SDS011;11653;50.848;4.584;2023-07-31T08:26:16;6.13;;;2.90;;
22973;SDS011;11653;50.848;4.584;2023-07-31T08:28:43;5.37;;;3.03;;
22973;SDS011;11653;50.848;4.584;2023-07-31T08:31:08;11.27;;;3.50;;
22973;SDS011;11653;50.848;4.584;2023-07-31T08:33:34;6.70;;;2.60;;
22973;SDS011;11653;50.848;4.584;2023-07-31T08:36:00;6.63;;;3.00;;
22973;SDS011;11653;50.848;4.584;2023-07-31T08:38:26;8.50;;;3.00;;
22973;SDS011;11653;50.848;4.584;2023-07-31T08:40:52;4.90;;;2.60;;
22973;SDS011;11653;50.848;4.584;2023-07-31T08:43:18;6.00;;;3.10;;
22973;SDS011;11653;50.848;4.584;2023-07-31T08:45:47;7.53;;;2.60;;
22973;SDS011;11653;50.848;4.584;2023-07-31T08:48:15;5.27;;;2.70;;
22973;SDS011;11653;50.848;4.584;2023-07-31T08:50:42;7.97;;;2.83;;
22973;SDS011;11653;50.848;4.584;2023-07-31T08:53:08;8.43;;;4.30;;
22973;SDS011;11653;50.848;4.584;2023-07-31T08:55:34;5.47;;;2.80;;
22973;SDS011;11653;50.848;4.584;2023-07-31T08:58:01;7.00;;;2.80;;
22973;SDS011;11653;50.848;4.584;2023-07-31T09:00:29;5.80;;;2.60;;
22973;SDS011;11653;50.848;4.584;2023-07-31T09:03:01;6.50;;;3.50;;
22973;SDS011;11653;50.848;4.584;2023-07-31T09:05:33;5.50;;;2.70;;
22973;SDS011;11653;50.848;4.584;2023-07-31T09:08:01;6.70;;;2.80;;
22973;SDS011;11653;50.848;4.584;2023-07-31T09:10:29;7.23;;;2.83;;
22973;SDS011;11653;50.848;4.584;2023-07-31T09:12:55;6.23;;;3.27;;
22973;SDS011;11653;50.848;4.584;2023-07-31T09:15:23;6.30;;;2.80;;
22973;SDS011;11653;50.848;4.584;2023-07-31T09:17:50;5.97;;;2.73;;
22973;SDS011;11653;50.848;4.584;2023-07-31T09:20:27;8.07;;;2.80;;
22973;SDS011;11653;50.848;4.584;2023-07-31T09:22:53;6.83;;;3.07;;
22973;SDS011;11653;50.848;4.584;2023-07-31T09:25:24;8.50;;;3.50;;
22973;SDS011;11653;50.848;4.584;2023-07-31T09:27:52;7.97;;;3.30;;
22973;SDS011;11653;50.848;4.584;2023-07-31T09:30:18;6.57;;;3.50;;
22973;SDS011;11653;50.848;4.584;2023-07-31T09:32:45;6.27;;;2.70;;
22973;SDS011;11653;50.848;4.584;2023-07-31T09:37:40;6.10;;;3.37;;
22973;SDS011;11653;50.848;4.584;2023-07-31T09:40:06;7.70;;;3.20;;
22973;SDS011;11653;50.848;4.584;2023-07-31T09:42:32;7.80;;;3.57;;
22973;SDS011;11653;50.848;4.584;2023-07-31T09:45:08;7.27;;;3.63;;
22973;SDS011;11653;50.848;4.584;2023-07-31T09:47:35;7.40;;;3.47;;
22973;SDS011;11653;50.848;4.584;2023-07-31T09:50:01;9.03;;;3.57;;
22973;SDS011;11653;50.848;4.584;2023-07-31T09:52:27;4.73;;;2.80;;
22973;SDS011;11653;50.848;4.584;2023-07-31T09:54:53;8.73;;;4.07;;
22973;SDS011;11653;50.848;4.584;2023-07-31T09:57:19;7.23;;;3.80;;
22973;SDS011;11653;50.848;4.584;2023-07-31T09:59:47;6.00;;;3.60;;
22973;SDS011;11653;50.848;4.584;2023-07-31T10:02:15;11.77;;;5.10;;
22973;SDS011;11653;50.848;4.584;2023-07-31T10:04:49;6.87;;;3.60;;
22973;SDS011;11653;50.848;4.584;2023-07-31T10:07:17;8.73;;;3.73;;
22973;SDS011;11653;50.848;4.584;2023-07-31T10:09:44;7.47;;;3.83;;
22973;SDS011;11653;50.848;4.584;2023-07-31T10:12:11;11.27;;;4.07;;
22973;SDS011;11653;50.848;4.584;2023-07-31T10:14:39;7.17;;;4.40;;
22973;SDS011;11653;50.848;4.584;2023-07-31T10:17:07;10.30;;;4.30;;
22973;SDS011;11653;50.848;4.584;2023-07-31T10:19:34;8.10;;;4.00;;
22973;SDS011;11653;50.848;4.584;2023-07-31T10:22:01;6.43;;;3.80;;
22973;SDS011;11653;50.848;4.584;2023-07-31T10:24:28;9.23;;;4.20;;
22973;SDS011;11653;50.848;4.584;2023-07-31T10:26:55;9.03;;;4.40;;
22973;SDS011;11653;50.848;4.584;2023-07-31T10:29:23;10.30;;;4.77;;
22973;SDS011;11653;50.848;4.584;2023-07-31T10:31:50;9.33;;;4.37;;
22973;SDS011;11653;50.848;4.584;2023-07-31T10:34:16;8.40;;;4.43;;
22973;SDS011;11653;50.848;4.584;2023-07-31T10:36:42;8.57;;;4.43;;
22973;SDS011;11653;50.848;4.584;2023-07-31T10:42:19;9.53;;;4.50;;
22973;SDS011;11653;50.848;4.584;2023-07-31T10:45:03;9.07;;;4.17;;
22973;SDS011;11653;50.848;4.584;2023-07-31T10:47:31;6.53;;;3.73;;
22973;SDS011;11653;50.848;4.584;2023-07-31T10:50:16;11.10;;;3.87;;
22973;SDS011;11653;50.848;4.584;2023-07-31T10:52:51;7.87;;;4.10;;
22973;SDS011;11653;50.848;4.584;2023-07-31T10:57:50;11.63;;;4.20;;
22973;SDS011;11653;50.848;4.584;2023-07-31T11:00:24;12.03;;;4.23;;
22973;SDS011;11653;50.848;4.584;2023-07-31T11:03:05;12.33;;;4.37;;
22973;SDS011;11653;50.848;4.584;2023-07-31T11:05:48;7.33;;;4.30;;
22973;SDS011;11653;50.848;4.584;2023-07-31T11:10:47;8.30;;;4.30;;
22973;SDS011;11653;50.848;4.584;2023-07-31T11:13:14;9.47;;;5.20;;
22973;SDS011;11653;50.848;4.584;2023-07-31T11:15:40;8.73;;;4.57;;
22973;SDS011;11653;50.848;4.584;2023-07-31T11:18:05;12.93;;;4.63;;
22973;SDS011;11653;50.848;4.584;2023-07-31T11:20:33;9.63;;;4.27;;
22973;SDS011;11653;50.848;4.584;2023-07-31T11:23:04;11.83;;;4.63;;
22973;SDS011;11653;50.848;4.584;2023-07-31T11:25:32;10.70;;;4.80;;
22973;SDS011;11653;50.848;4.584;2023-07-31T11:28:03;12.23;;;4.30;;
22973;SDS011;11653;50.848;4.584;2023-07-31T11:30:34;12.57;;;4.37;;
22973;SDS011;11653;50.848;4.584;2023-07-31T11:33:03;8.80;;;3.97;;
22973;SDS011;11653;50.848;4.584;2023-07-31T11:35:31;8.90;;;4.30;;
22973;SDS011;11653;50.848;4.584;2023-07-31T11:38:00;13.43;;;4.73;;
22973;SDS011;11653;50.848;4.584;2023-07-31T11:40:27;11.03;;;3.83;;
22973;SDS011;11653;50.848;4.584;2023-07-31T11:42:56;8.13;;;3.80;;
22973;SDS011;11653;50.848;4.584;2023-07-31T11:45:24;10.53;;;3.90;;
22973;SDS011;11653;50.848;4.584;2023-07-31T11:47:52;9.93;;;3.90;;
22973;SDS011;11653;50.848;4.584;2023-07-31T11:50:19;9.53;;;3.80;;
22973;SDS011;11653;50.848;4.584;2023-07-31T11:52:46;10.03;;;4.30;;
22973;SDS011;11653;50.848;4.584;2023-07-31T11:55:13;9.37;;;4.47;;
22973;SDS011;11653;50.848;4.584;2023-07-31T11:57:40;10.63;;;4.93;;
22973;SDS011;11653;50.848;4.584;2023-07-31T12:00:09;9.27;;;4.37;;
22973;SDS011;11653;50.848;4.584;2023-07-31T12:02:38;7.77;;;4.30;;
22973;SDS011;11653;50.848;4.584;2023-07-31T12:05:05;11.03;;;4.07;;
22973;SDS011;11653;50.848;4.584;2023-07-31T12:07:50;12.47;;;4.67;;
22973;SDS011;11653;50.848;4.584;2023-07-31T12:10:27;12.00;;;4.53;;
22973;SDS011;11653;50.848;4.584;2023-07-31T12:13:05;10.27;;;3.90;;
22973;SDS011;11653;50.848;4.584;2023-07-31T12:15:42;14.70;;;4.47;;
22973;SDS011;11653;50.848;4.584;2023-07-31T12:18:13;8.40;;;4.13;;
22973;SDS011;11653;50.848;4.584;2023-07-31T12:20:43;13.53;;;4.00;;
22973;SDS011;11653;50.848;4.584;2023-07-31T12:23:17;11.40;;;4.10;;
22973;SDS011;11653;50.848;4.584;2023-07-31T12:28:40;8.33;;;4.07;;
22973;SDS011;11653;50.848;4.584;2023-07-31T12:31:16;9.47;;;3.80;;
22973;SDS011;11653;50.848;4.584;2023-07-31T12:33:43;11.30;;;3.83;;
22973;SDS011;11653;50.848;4.584;2023-07-31T12:36:11;10.57;;;4.63;;
22973;SDS011;11653;50.848;4.584;2023-07-31T12:38:38;12.53;;;4.30;;
22973;SDS011;11653;50.848;4.584;2023-07-31T12:41:04;10.63;;;4.03;;
22973;SDS011;11653;50.848;4.584;2023-07-31T12:43:32;10.27;;;4.57;;
22973;SDS011;11653;50.848;4.584;2023-07-31T12:46:01;10.83;;;4.20;;
22973;SDS011;11653;50.848;4.584;2023-07-31T12:48:27;9.20;;;3.70;;
22973;SDS011;11653;50.848;4.584;2023-07-31T12:50:52;9.97;;;4.50;;
22973;SDS011;11653;50.848;4.584;2023-07-31T12:53:18;14.70;;;4.70;;
22973;SDS011;11653;50.848;4.584;2023-07-31T12:55:44;11.67;;;5.07;;
22973;SDS011;11653;50.848;4.584;2023-07-31T12:58:10;15.97;;;4.67;;
22973;SDS011;11653;50.848;4.584;2023-07-31T13:00:38;13.50;;;4.80;;
22973;SDS011;11653;50.848;4.584;2023-07-31T13:03:04;13.40;;;5.27;;
22973;SDS011;11653;50.848;4.584;2023-07-31T13:05:30;11.13;;;4.93;;
22973;SDS011;11653;50.848;4.584;2023-07-31T13:07:55;10.93;;;4.80;;
22973;SDS011;11653;50.848;4.584;2023-07-31T13:10:22;11.27;;;4.70;;
22973;SDS011;11653;50.848;4.584;2023-07-31T13:12:48;12.57;;;4.57;;
22973;SDS011;11653;50.848;4.584;2023-07-31T13:15:14;12.87;;;4.63;;
22973;SDS011;11653;50.848;4.584;2023-07-31T13:17:39;8.43;;;4.73;;
22973;SDS011;11653;50.848;4.584;2023-07-31T13:20:05;9.37;;;4.30;;
22973;SDS011;11653;50.848;4.584;2023-07-31T13:22:31;10.73;;;4.40;;
22973;SDS011;11653;50.848;4.584;2023-07-31T13:24:57;14.13;;;3.90;;
22973;SDS011;11653;50.848;4.584;2023-07-31T13:27:23;7.57;;;4.03;;
22973;SDS011;11653;50.848;4.584;2023-07-31T13:29:49;9.37;;;4.13;;
22973;SDS011;11653;50.848;4.584;2023-07-31T13:32:16;8.10;;;4.13;;
22973;SDS011;11653;50.848;4.584;2023-07-31T13:34:43;8.70;;;4.00;;
22973;SDS011;11653;50.848;4.584;2023-07-31T13:37:09;8.27;;;4.13;;
22973;SDS011;11653;50.848;4.584;2023-07-31T13:39:35;6.97;;;3.80;;
22973;SDS011;11653;50.848;4.584;2023-07-31T13:42:02;9.60;;;3.40;;
22973;SDS011;11653;50.848;4.584;2023-07-31T13:44:31;6.77;;;3.50;;
22973;SDS011;11653;50.848;4.584;2023-07-31T13:46:57;5.67;;;2.90;;
22973;SDS011;11653;50.848;4.584;2023-07-31T13:49:23;8.00;;;3.03;;
22973;SDS011;11653;50.848;4.584;2023-07-31T13:51:49;7.00;;;2.97;;
22973;SDS011;11653;50.848;4.584;2023-07-31T13:54:15;4.77;;;2.77;;
22973;SDS011;11653;50.848;4.584;2023-07-31T13:56:41;6.23;;;2.57;;
22973;SDS011;11653;50.848;4.584;2023-07-31T13:59:07;10.73;;;3.17;;
22973;SDS011;11653;50.848;4.584;2023-07-31T14:01:33;6.47;;;3.13;;
22973;SDS011;11653;50.848;4.584;2023-07-31T14:03:58;4.57;;;2.67;;
22973;SDS011;11653;50.848;4.584;2023-07-31T14:06:24;7.33;;;2.60;;
22973;SDS011;11653;50.848;4.584;2023-07-31T14:08:50;5.37;;;2.90;;
22973;SDS011;11653;50.848;4.584;2023-07-31T14:11:15;8.43;;;3.00;;
22973;SDS011;11653;50.848;4.584;2023-07-31T14:13:41;8.37;;;3.00;;
22973;SDS011;11653;50.848;4.584;2023-07-31T14:16:07;4.00;;;2.73;;
22973;SDS011;11653;50.848;4.584;2023-07-31T14:18:32;5.97;;;2.90;;
22973;SDS011;11653;50.848;4.584;2023-07-31T14:20:58;6.27;;;2.77;;
22973;SDS011;11653;50.848;4.584;2023-07-31T14:23:23;4.37;;;2.70;;
22973;SDS011;11653;50.848;4.584;2023-07-31T14:25:49;4.27;;;2.80;;
22973;SDS011;11653;50.848;4.584;2023-07-31T14:28:15;4.90;;;2.67;;
22973;SDS011;11653;50.848;4.584;2023-07-31T14:30:40;6.27;;;3.13;;
22973;SDS011;11653;50.848;4.584;2023-07-31T14:33:06;5.03;;;2.50;;
22973;SDS011;11653;50.848;4.584;2023-07-31T14:35:33;5.03;;;2.73;;
22973;SDS011;11653;50.848;4.584;2023-07-31T14:37:59;5.47;;;2.90;;
22973;SDS011;11653;50.848;4.584;2023-07-31T14:40:25;5.57;;;3.00;;
22973;SDS011;11653;50.848;4.584;2023-07-31T14:42:50;6.90;;;2.53;;
22973;SDS011;11653;50.848;4.584;2023-07-31T14:45:16;6.73;;;2.90;;
22973;SDS011;11653;50.848;4.584;2023-07-31T14:47:42;5.87;;;2.90;;
22973;SDS011;11653;50.848;4.584;2023-07-31T14:50:07;5.97;;;2.90;;
22973;SDS011;11653;50.848;4.584;2023-07-31T14:52:33;5.13;;;2.73;;
22973;SDS011;11653;50.848;4.584;2023-07-31T14:54:59;5.57;;;2.67;;
22973;SDS011;11653;50.848;4.584;2023-07-31T14:57:25;4.57;;;2.80;;